sensor_id;sensor_type;location;lat;lon;timestamp;P1;durP1;ratioP1;P2;durP2;ratioP2
61899;SDS011;47853;55.890;37.664;2023-07-28T00:01:23;18.92;;;14.85;;
61899;SDS011;47853;55.890;37.664;2023-07-28T00:03:49;22.10;;;14.70;;
61899;SDS011;47853;55.890;37.664;2023-07-28T00:06:14;22.10;;;15.48;;
61899;SDS011;47853;55.890;37.664;2023-07-28T00:08:39;21.33;;;17.65;;
61899;SDS011;47853;55.890;37.664;2023-07-28T00:11:08;26.55;;;15.85;;
61899;SDS011;47853;55.890;37.664;2023-07-28T00:13:36;26.35;;;15.00;;
61899;SDS011;47853;55.890;37.664;2023-07-28T00:16:02;18.90;;;15.70;;
61899;SDS011;47853;55.890;37.664;2023-07-28T00:18:27;18.92;;;16.23;;
61899;SDS011;47853;55.890;37.664;2023-07-28T00:20:53;19.05;;;15.85;;
61899;SDS011;47853;55.890;37.664;2023-07-28T00:23:18;18.73;;;15.80;;
61899;SDS011;47853;55.890;37.664;2023-07-28T00:25:43;23.17;;;15.93;;
61899;SDS011;47853;55.890;37.664;2023-07-28T00:28:09;23.77;;;15.82;;
61899;SDS011;47853;55.890;37.664;2023-07-28T00:30:34;21.33;;;16.08;;
61899;SDS011;47853;55.890;37.664;2023-07-28T00:32:59;24.02;;;16.13;;
61899;SDS011;47853;55.890;37.664;2023-07-28T00:35:25;19.35;;;15.88;;
61899;SDS011;47853;55.890;37.664;2023-07-28T00:37:50;19.13;;;14.68;;
61899;SDS011;47853;55.890;37.664;2023-07-28T00:40:15;21.48;;;14.90;;
61899;SDS011;47853;55.890;37.664;2023-07-28T00:43:01;21.60;;;16.55;;
61899;SDS011;47853;55.890;37.664;2023-07-28T00:45:57;20.45;;;16.20;;
61899;SDS011;47853;55.890;37.664;2023-07-28T00:48:23;19.50;;;15.98;;
61899;SDS011;47853;55.890;37.664;2023-07-28T00:50:51;21.08;;;15.73;;
61899;SDS011;47853;55.890;37.664;2023-07-28T00:53:18;21.30;;;16.80;;
61899;SDS011;47853;55.890;37.664;2023-07-28T00:58:36;22.80;;;15.63;;
61899;SDS011;47853;55.890;37.664;2023-07-28T01:01:01;24.73;;;17.20;;
61899;SDS011;47853;55.890;37.664;2023-07-28T01:03:27;18.45;;;15.88;;
61899;SDS011;47853;55.890;37.664;2023-07-28T01:09:22;18.92;;;16.85;;
61899;SDS011;47853;55.890;37.664;2023-07-28T01:11:29;35.60;;;17.05;;
61899;SDS011;47853;55.890;37.664;2023-07-28T01:13:58;23.30;;;17.02;;
61899;SDS011;47853;55.890;37.664;2023-07-28T01:16:23;19.33;;;16.20;;
61899;SDS011;47853;55.890;37.664;2023-07-28T01:18:52;23.60;;;17.25;;
61899;SDS011;47853;55.890;37.664;2023-07-28T01:21:20;20.33;;;15.85;;
61899;SDS011;47853;55.890;37.664;2023-07-28T01:26:31;23.85;;;18.05;;
61899;SDS011;47853;55.890;37.664;2023-07-28T01:28:59;19.23;;;16.13;;
61899;SDS011;47853;55.890;37.664;2023-07-28T01:31:25;26.85;;;17.85;;
61899;SDS011;47853;55.890;37.664;2023-07-28T01:33:51;21.95;;;16.23;;
61899;SDS011;47853;55.890;37.664;2023-07-28T01:36:16;28.02;;;15.30;;
61899;SDS011;47853;55.890;37.664;2023-07-28T01:38:41;19.75;;;16.17;;
61899;SDS011;47853;55.890;37.664;2023-07-28T01:41:07;21.80;;;16.25;;
61899;SDS011;47853;55.890;37.664;2023-07-28T01:43:32;20.42;;;17.50;;
61899;SDS011;47853;55.890;37.664;2023-07-28T01:45:57;23.02;;;16.23;;
61899;SDS011;47853;55.890;37.664;2023-07-28T01:48:23;19.10;;;15.45;;
61899;SDS011;47853;55.890;37.664;2023-07-28T01:50:48;23.13;;;17.17;;
61899;SDS011;47853;55.890;37.664;2023-07-28T01:53:13;19.70;;;14.85;;
61899;SDS011;47853;55.890;37.664;2023-07-28T01:55:39;20.52;;;14.23;;
61899;SDS011;47853;55.890;37.664;2023-07-28T01:58:04;18.13;;;13.77;;
61899;SDS011;47853;55.890;37.664;2023-07-28T02:00:29;18.27;;;14.55;;
61899;SDS011;47853;55.890;37.664;2023-07-28T02:02:55;18.10;;;14.50;;
61899;SDS011;47853;55.890;37.664;2023-07-28T02:05:20;18.80;;;14.15;;
61899;SDS011;47853;55.890;37.664;2023-07-28T02:07:46;17.35;;;14.95;;
61899;SDS011;47853;55.890;37.664;2023-07-28T02:10:11;15.93;;;14.13;;
61899;SDS011;47853;55.890;37.664;2023-07-28T02:12:37;21.30;;;16.15;;
61899;SDS011;47853;55.890;37.664;2023-07-28T02:15:04;20.13;;;14.98;;
61899;SDS011;47853;55.890;37.664;2023-07-28T02:17:30;21.25;;;14.93;;
61899;SDS011;47853;55.890;37.664;2023-07-28T02:19:56;19.15;;;14.85;;
61899;SDS011;47853;55.890;37.664;2023-07-28T02:22:21;17.20;;;15.15;;
61899;SDS011;47853;55.890;37.664;2023-07-28T02:24:46;19.83;;;14.30;;
61899;SDS011;47853;55.890;37.664;2023-07-28T02:27:12;16.80;;;13.98;;
61899;SDS011;47853;55.890;37.664;2023-07-28T02:29:37;19.73;;;13.60;;
61899;SDS011;47853;55.890;37.664;2023-07-28T02:32:02;20.42;;;16.13;;
61899;SDS011;47853;55.890;37.664;2023-07-28T02:34:28;22.48;;;16.65;;
61899;SDS011;47853;55.890;37.664;2023-07-28T02:36:53;20.25;;;15.25;;
61899;SDS011;47853;55.890;37.664;2023-07-28T02:39:19;20.45;;;16.52;;
61899;SDS011;47853;55.890;37.664;2023-07-28T02:41:44;20.52;;;17.42;;
61899;SDS011;47853;55.890;37.664;2023-07-28T02:44:09;22.05;;;16.35;;
61899;SDS011;47853;55.890;37.664;2023-07-28T02:46:35;18.98;;;14.73;;
61899;SDS011;47853;55.890;37.664;2023-07-28T02:49:02;19.58;;;15.68;;
61899;SDS011;47853;55.890;37.664;2023-07-28T02:51:28;20.77;;;16.38;;
61899;SDS011;47853;55.890;37.664;2023-07-28T02:53:53;19.00;;;15.75;;
61899;SDS011;47853;55.890;37.664;2023-07-28T02:56:18;23.83;;;16.77;;
61899;SDS011;47853;55.890;37.664;2023-07-28T02:58:44;19.27;;;17.23;;
61899;SDS011;47853;55.890;37.664;2023-07-28T03:01:09;23.85;;;17.45;;
61899;SDS011;47853;55.890;37.664;2023-07-28T03:03:34;19.05;;;16.52;;
61899;SDS011;47853;55.890;37.664;2023-07-28T03:06:00;22.05;;;17.08;;
61899;SDS011;47853;55.890;37.664;2023-07-28T03:08:25;25.13;;;16.73;;
61899;SDS011;47853;55.890;37.664;2023-07-28T03:10:50;22.50;;;18.08;;
61899;SDS011;47853;55.890;37.664;2023-07-28T03:13:21;22.20;;;17.83;;
61899;SDS011;47853;55.890;37.664;2023-07-28T03:15:46;21.40;;;15.93;;
61899;SDS011;47853;55.890;37.664;2023-07-28T03:18:12;20.80;;;16.38;;
61899;SDS011;47853;55.890;37.664;2023-07-28T03:20:37;25.05;;;16.90;;
61899;SDS011;47853;55.890;37.664;2023-07-28T03:23:02;24.13;;;20.08;;
61899;SDS011;47853;55.890;37.664;2023-07-28T03:25:27;21.02;;;16.55;;
61899;SDS011;47853;55.890;37.664;2023-07-28T03:27:53;18.15;;;16.20;;
61899;SDS011;47853;55.890;37.664;2023-07-28T03:30:18;20.65;;;18.55;;
61899;SDS011;47853;55.890;37.664;2023-07-28T03:32:53;20.58;;;17.80;;
61899;SDS011;47853;55.890;37.664;2023-07-28T03:35:18;19.75;;;16.92;;
61899;SDS011;47853;55.890;37.664;2023-07-28T03:37:49;21.85;;;17.85;;
61899;SDS011;47853;55.890;37.664;2023-07-28T03:40:19;22.63;;;17.65;;
61899;SDS011;47853;55.890;37.664;2023-07-28T03:42:53;21.55;;;15.52;;
61899;SDS011;47853;55.890;37.664;2023-07-28T03:45:18;21.98;;;16.48;;
61899;SDS011;47853;55.890;37.664;2023-07-28T03:47:46;23.15;;;16.60;;
61899;SDS011;47853;55.890;37.664;2023-07-28T03:50:35;20.77;;;17.17;;
61899;SDS011;47853;55.890;37.664;2023-07-28T03:53:28;23.92;;;20.30;;
61899;SDS011;47853;55.890;37.664;2023-07-28T03:58:56;32.40;;;22.85;;
61899;SDS011;47853;55.890;37.664;2023-07-28T04:01:21;29.95;;;24.33;;
61899;SDS011;47853;55.890;37.664;2023-07-28T04:03:49;30.38;;;22.13;;
61899;SDS011;47853;55.890;37.664;2023-07-28T04:06:14;59.05;;;24.88;;
61899;SDS011;47853;55.890;37.664;2023-07-28T04:08:40;40.03;;;26.90;;
61899;SDS011;47853;55.890;37.664;2023-07-28T04:11:06;41.35;;;30.15;;
61899;SDS011;47853;55.890;37.664;2023-07-28T04:13:33;40.50;;;27.63;;
61899;SDS011;47853;55.890;37.664;2023-07-28T04:15:59;40.75;;;28.95;;
61899;SDS011;47853;55.890;37.664;2023-07-28T04:18:24;41.15;;;30.48;;
61899;SDS011;47853;55.890;37.664;2023-07-28T04:20:50;39.83;;;29.88;;
61899;SDS011;47853;55.890;37.664;2023-07-28T04:23:15;40.53;;;30.80;;
61899;SDS011;47853;55.890;37.664;2023-07-28T04:25:41;34.08;;;24.60;;
61899;SDS011;47853;55.890;37.664;2023-07-28T04:28:06;51.80;;;31.92;;
61899;SDS011;47853;55.890;37.664;2023-07-28T04:30:31;34.72;;;25.80;;
61899;SDS011;47853;55.890;37.664;2023-07-28T04:32:56;46.90;;;30.83;;
61899;SDS011;47853;55.890;37.664;2023-07-28T04:35:22;34.40;;;25.92;;
61899;SDS011;47853;55.890;37.664;2023-07-28T04:37:47;32.67;;;23.08;;
61899;SDS011;47853;55.890;37.664;2023-07-28T04:40:12;28.65;;;23.52;;
61899;SDS011;47853;55.890;37.664;2023-07-28T04:42:38;32.38;;;25.27;;
61899;SDS011;47853;55.890;37.664;2023-07-28T04:45:03;29.92;;;23.65;;
61899;SDS011;47853;55.890;37.664;2023-07-28T04:47:29;30.70;;;22.55;;
61899;SDS011;47853;55.890;37.664;2023-07-28T04:49:54;23.95;;;20.27;;
61899;SDS011;47853;55.890;37.664;2023-07-28T04:52:20;24.45;;;21.90;;
61899;SDS011;47853;55.890;37.664;2023-07-28T04:54:45;30.55;;;24.08;;
61899;SDS011;47853;55.890;37.664;2023-07-28T04:57:10;28.10;;;20.80;;
61899;SDS011;47853;55.890;37.664;2023-07-28T04:59:36;32.58;;;24.20;;
61899;SDS011;47853;55.890;37.664;2023-07-28T05:02:01;39.42;;;26.85;;
61899;SDS011;47853;55.890;37.664;2023-07-28T05:04:26;27.75;;;21.30;;
61899;SDS011;47853;55.890;37.664;2023-07-28T05:06:52;22.23;;;17.75;;
61899;SDS011;47853;55.890;37.664;2023-07-28T05:09:17;24.63;;;20.60;;
61899;SDS011;47853;55.890;37.664;2023-07-28T05:11:42;23.80;;;16.15;;
61899;SDS011;47853;55.890;37.664;2023-07-28T05:14:08;30.98;;;22.27;;
61899;SDS011;47853;55.890;37.664;2023-07-28T05:16:33;19.63;;;17.45;;
61899;SDS011;47853;55.890;37.664;2023-07-28T05:18:58;25.48;;;19.65;;
61899;SDS011;47853;55.890;37.664;2023-07-28T05:21:24;24.27;;;18.92;;
61899;SDS011;47853;55.890;37.664;2023-07-28T05:23:49;23.02;;;17.60;;
61899;SDS011;47853;55.890;37.664;2023-07-28T05:26:14;26.98;;;22.42;;
61899;SDS011;47853;55.890;37.664;2023-07-28T05:28:39;20.15;;;15.88;;
61899;SDS011;47853;55.890;37.664;2023-07-28T05:31:05;22.60;;;19.23;;
61899;SDS011;47853;55.890;37.664;2023-07-28T05:33:31;19.90;;;17.42;;
61899;SDS011;47853;55.890;37.664;2023-07-28T05:36:02;19.85;;;15.48;;
61899;SDS011;47853;55.890;37.664;2023-07-28T05:38:28;24.42;;;17.70;;
61899;SDS011;47853;55.890;37.664;2023-07-28T05:40:57;18.63;;;15.68;;
61899;SDS011;47853;55.890;37.664;2023-07-28T05:43:23;19.40;;;16.20;;
61899;SDS011;47853;55.890;37.664;2023-07-28T05:45:49;19.92;;;15.80;;
61899;SDS011;47853;55.890;37.664;2023-07-28T05:48:14;18.63;;;16.08;;
61899;SDS011;47853;55.890;37.664;2023-07-28T05:50:39;22.00;;;17.08;;
61899;SDS011;47853;55.890;37.664;2023-07-28T05:53:04;22.50;;;17.80;;
61899;SDS011;47853;55.890;37.664;2023-07-28T05:55:30;23.13;;;17.40;;
61899;SDS011;47853;55.890;37.664;2023-07-28T05:57:55;30.52;;;26.88;;
61899;SDS011;47853;55.890;37.664;2023-07-28T06:00:20;24.30;;;19.77;;
61899;SDS011;47853;55.890;37.664;2023-07-28T06:02:46;21.83;;;16.45;;
61899;SDS011;47853;55.890;37.664;2023-07-28T06:05:11;31.45;;;26.52;;
61899;SDS011;47853;55.890;37.664;2023-07-28T06:07:36;22.08;;;15.40;;
61899;SDS011;47853;55.890;37.664;2023-07-28T06:10:02;17.35;;;14.48;;
61899;SDS011;47853;55.890;37.664;2023-07-28T06:12:27;17.17;;;12.77;;
61899;SDS011;47853;55.890;37.664;2023-07-28T06:14:53;20.05;;;13.40;;
61899;SDS011;47853;55.890;37.664;2023-07-28T06:17:18;20.05;;;13.18;;
61899;SDS011;47853;55.890;37.664;2023-07-28T06:19:43;18.13;;;13.63;;
61899;SDS011;47853;55.890;37.664;2023-07-28T06:22:09;16.20;;;12.90;;
61899;SDS011;47853;55.890;37.664;2023-07-28T06:24:34;26.65;;;14.80;;
61899;SDS011;47853;55.890;37.664;2023-07-28T06:26:59;21.45;;;15.60;;
61899;SDS011;47853;55.890;37.664;2023-07-28T06:29:25;14.40;;;12.15;;
61899;SDS011;47853;55.890;37.664;2023-07-28T06:31:50;16.65;;;12.00;;
61899;SDS011;47853;55.890;37.664;2023-07-28T06:34:15;17.98;;;12.13;;
61899;SDS011;47853;55.890;37.664;2023-07-28T06:36:41;16.13;;;9.95;;
61899;SDS011;47853;55.890;37.664;2023-07-28T06:39:06;16.17;;;10.68;;
61899;SDS011;47853;55.890;37.664;2023-07-28T06:41:31;14.38;;;10.75;;
61899;SDS011;47853;55.890;37.664;2023-07-28T06:43:57;15.55;;;9.85;;
61899;SDS011;47853;55.890;37.664;2023-07-28T06:46:22;12.05;;;9.48;;
61899;SDS011;47853;55.890;37.664;2023-07-28T06:48:47;13.60;;;8.77;;
61899;SDS011;47853;55.890;37.664;2023-07-28T06:51:13;11.15;;;8.00;;
61899;SDS011;47853;55.890;37.664;2023-07-28T06:53:38;14.15;;;9.45;;
61899;SDS011;47853;55.890;37.664;2023-07-28T06:56:03;13.25;;;8.95;;
61899;SDS011;47853;55.890;37.664;2023-07-28T06:58:29;12.63;;;8.07;;
61899;SDS011;47853;55.890;37.664;2023-07-28T07:00:54;20.90;;;8.90;;
61899;SDS011;47853;55.890;37.664;2023-07-28T07:03:19;12.77;;;9.10;;
61899;SDS011;47853;55.890;37.664;2023-07-28T07:05:45;15.48;;;8.98;;
61899;SDS011;47853;55.890;37.664;2023-07-28T07:08:10;22.40;;;11.02;;
61899;SDS011;47853;55.890;37.664;2023-07-28T07:10:35;15.13;;;8.82;;
61899;SDS011;47853;55.890;37.664;2023-07-28T07:13:01;16.02;;;9.32;;
61899;SDS011;47853;55.890;37.664;2023-07-28T07:15:26;15.35;;;9.27;;
61899;SDS011;47853;55.890;37.664;2023-07-28T07:17:52;16.95;;;9.50;;
61899;SDS011;47853;55.890;37.664;2023-07-28T07:20:17;12.00;;;8.57;;
61899;SDS011;47853;55.890;37.664;2023-07-28T07:22:42;14.75;;;9.13;;
61899;SDS011;47853;55.890;37.664;2023-07-28T07:25:08;17.70;;;10.38;;
61899;SDS011;47853;55.890;37.664;2023-07-28T07:27:33;18.40;;;12.60;;
61899;SDS011;47853;55.890;37.664;2023-07-28T07:29:58;18.50;;;15.38;;
61899;SDS011;47853;55.890;37.664;2023-07-28T07:32:24;15.10;;;9.48;;
61899;SDS011;47853;55.890;37.664;2023-07-28T07:34:49;17.27;;;9.55;;
61899;SDS011;47853;55.890;37.664;2023-07-28T07:37:14;12.10;;;8.98;;
61899;SDS011;47853;55.890;37.664;2023-07-28T07:39:40;15.75;;;10.52;;
61899;SDS011;47853;55.890;37.664;2023-07-28T07:42:05;11.95;;;9.00;;
61899;SDS011;47853;55.890;37.664;2023-07-28T07:44:31;10.73;;;7.97;;
61899;SDS011;47853;55.890;37.664;2023-07-28T07:46:58;14.98;;;8.90;;
61899;SDS011;47853;55.890;37.664;2023-07-28T07:49:25;16.35;;;10.25;;
61899;SDS011;47853;55.890;37.664;2023-07-28T07:51:50;16.08;;;11.57;;
61899;SDS011;47853;55.890;37.664;2023-07-28T07:54:16;12.40;;;9.00;;
61899;SDS011;47853;55.890;37.664;2023-07-28T07:56:41;14.77;;;9.77;;
61899;SDS011;47853;55.890;37.664;2023-07-28T07:59:07;13.02;;;8.35;;
61899;SDS011;47853;55.890;37.664;2023-07-28T08:01:32;11.23;;;8.43;;
61899;SDS011;47853;55.890;37.664;2023-07-28T08:03:57;17.52;;;9.68;;
61899;SDS011;47853;55.890;37.664;2023-07-28T08:06:23;21.65;;;11.27;;
61899;SDS011;47853;55.890;37.664;2023-07-28T08:08:48;16.23;;;10.20;;
61899;SDS011;47853;55.890;37.664;2023-07-28T08:11:14;16.23;;;9.82;;
61899;SDS011;47853;55.890;37.664;2023-07-28T08:13:39;17.38;;;11.65;;
61899;SDS011;47853;55.890;37.664;2023-07-28T08:16:04;17.17;;;11.25;;
61899;SDS011;47853;55.890;37.664;2023-07-28T08:18:30;14.77;;;9.85;;
61899;SDS011;47853;55.890;37.664;2023-07-28T08:20:55;16.92;;;9.85;;
61899;SDS011;47853;55.890;37.664;2023-07-28T08:23:20;12.63;;;9.18;;
61899;SDS011;47853;55.890;37.664;2023-07-28T08:25:46;10.27;;;7.20;;
61899;SDS011;47853;55.890;37.664;2023-07-28T08:28:14;14.80;;;8.05;;
61899;SDS011;47853;55.890;37.664;2023-07-28T08:30:46;9.95;;;7.72;;
61899;SDS011;47853;55.890;37.664;2023-07-28T08:33:19;10.45;;;7.90;;
61899;SDS011;47853;55.890;37.664;2023-07-28T08:35:44;28.10;;;22.48;;
61899;SDS011;47853;55.890;37.664;2023-07-28T08:38:12;10.52;;;7.38;;
61899;SDS011;47853;55.890;37.664;2023-07-28T08:40:40;10.38;;;8.27;;
61899;SDS011;47853;55.890;37.664;2023-07-28T08:43:05;10.63;;;7.03;;
61899;SDS011;47853;55.890;37.664;2023-07-28T08:45:31;11.93;;;7.82;;
61899;SDS011;47853;55.890;37.664;2023-07-28T08:47:56;11.30;;;6.40;;
61899;SDS011;47853;55.890;37.664;2023-07-28T08:50:22;8.63;;;6.35;;
61899;SDS011;47853;55.890;37.664;2023-07-28T08:52:47;8.10;;;6.00;;
61899;SDS011;47853;55.890;37.664;2023-07-28T08:55:13;10.45;;;6.47;;
61899;SDS011;47853;55.890;37.664;2023-07-28T08:57:38;9.77;;;6.30;;
61899;SDS011;47853;55.890;37.664;2023-07-28T09:00:10;8.45;;;5.82;;
61899;SDS011;47853;55.890;37.664;2023-07-28T09:02:36;9.23;;;5.20;;
61899;SDS011;47853;55.890;37.664;2023-07-28T09:05:02;10.30;;;5.82;;
61899;SDS011;47853;55.890;37.664;2023-07-28T09:07:33;10.10;;;6.10;;
61899;SDS011;47853;55.890;37.664;2023-07-28T09:09:59;11.98;;;6.13;;
61899;SDS011;47853;55.890;37.664;2023-07-28T09:12:25;8.15;;;5.95;;
61899;SDS011;47853;55.890;37.664;2023-07-28T09:14:50;9.38;;;6.35;;
61899;SDS011;47853;55.890;37.664;2023-07-28T09:17:21;8.02;;;5.80;;
61899;SDS011;47853;55.890;37.664;2023-07-28T09:19:53;23.08;;;18.13;;
61899;SDS011;47853;55.890;37.664;2023-07-28T09:22:23;14.70;;;7.47;;
61899;SDS011;47853;55.890;37.664;2023-07-28T09:24:51;13.90;;;5.80;;
61899;SDS011;47853;55.890;37.664;2023-07-28T09:27:20;7.80;;;6.43;;
61899;SDS011;47853;55.890;37.664;2023-07-28T09:29:50;6.38;;;5.60;;
61899;SDS011;47853;55.890;37.664;2023-07-28T09:32:29;9.50;;;6.28;;
61899;SDS011;47853;55.890;37.664;2023-07-28T09:35:05;8.90;;;5.68;;
61899;SDS011;47853;55.890;37.664;2023-07-28T09:37:31;6.57;;;5.78;;
61899;SDS011;47853;55.890;37.664;2023-07-28T09:39:57;7.68;;;6.03;;
61899;SDS011;47853;55.890;37.664;2023-07-28T09:42:23;8.40;;;5.85;;
61899;SDS011;47853;55.890;37.664;2023-07-28T09:44:49;6.35;;;5.30;;
61899;SDS011;47853;55.890;37.664;2023-07-28T09:47:14;6.57;;;5.78;;
61899;SDS011;47853;55.890;37.664;2023-07-28T09:49:39;7.05;;;5.90;;
61899;SDS011;47853;55.890;37.664;2023-07-28T09:52:10;8.50;;;6.00;;
61899;SDS011;47853;55.890;37.664;2023-07-28T09:54:39;6.50;;;5.90;;
61899;SDS011;47853;55.890;37.664;2023-07-28T09:57:07;6.97;;;5.95;;
61899;SDS011;47853;55.890;37.664;2023-07-28T09:59:37;10.48;;;6.63;;
61899;SDS011;47853;55.890;37.664;2023-07-28T10:02:07;9.15;;;6.55;;
61899;SDS011;47853;55.890;37.664;2023-07-28T10:04:41;11.25;;;6.57;;
61899;SDS011;47853;55.890;37.664;2023-07-28T10:07:07;10.85;;;7.43;;
61899;SDS011;47853;55.890;37.664;2023-07-28T10:09:34;10.43;;;6.60;;
61899;SDS011;47853;55.890;37.664;2023-07-28T10:12:00;7.93;;;6.47;;
61899;SDS011;47853;55.890;37.664;2023-07-28T10:16:55;8.77;;;6.38;;
61899;SDS011;47853;55.890;37.664;2023-07-28T10:19:28;9.43;;;7.38;;
61899;SDS011;47853;55.890;37.664;2023-07-28T10:22:01;10.45;;;6.88;;
61899;SDS011;47853;55.890;37.664;2023-07-28T10:30:52;10.07;;;7.25;;
61899;SDS011;47853;55.890;37.664;2023-07-28T10:39:16;11.18;;;9.25;;
61899;SDS011;47853;55.890;37.664;2023-07-28T10:50:04;10.90;;;9.18;;
61899;SDS011;47853;55.890;37.664;2023-07-28T10:52:32;8.50;;;7.70;;
61899;SDS011;47853;55.890;37.664;2023-07-28T10:55:18;13.90;;;10.13;;
61899;SDS011;47853;55.890;37.664;2023-07-28T10:57:46;13.32;;;9.77;;
61899;SDS011;47853;55.890;37.664;2023-07-28T11:00:19;13.35;;;10.13;;
61899;SDS011;47853;55.890;37.664;2023-07-28T11:02:51;12.63;;;9.15;;
61899;SDS011;47853;55.890;37.664;2023-07-28T11:05:25;10.27;;;8.95;;
61899;SDS011;47853;55.890;37.664;2023-07-28T11:08:40;10.45;;;9.40;;
61899;SDS011;47853;55.890;37.664;2023-07-28T11:11:29;14.27;;;10.82;;
61899;SDS011;47853;55.890;37.664;2023-07-28T11:14:14;12.00;;;10.85;;
61899;SDS011;47853;55.890;37.664;2023-07-28T11:16:43;11.90;;;10.38;;
61899;SDS011;47853;55.890;37.664;2023-07-28T11:19:12;13.13;;;11.30;;
61899;SDS011;47853;55.890;37.664;2023-07-28T11:21:41;15.20;;;9.38;;
61899;SDS011;47853;55.890;37.664;2023-07-28T11:27:29;16.23;;;11.88;;
61899;SDS011;47853;55.890;37.664;2023-07-28T11:29:57;18.08;;;11.60;;
61899;SDS011;47853;55.890;37.664;2023-07-28T11:32:29;14.10;;;11.95;;
61899;SDS011;47853;55.890;37.664;2023-07-28T11:35:02;12.48;;;10.85;;
61899;SDS011;47853;55.890;37.664;2023-07-28T11:37:31;12.25;;;11.00;;
61899;SDS011;47853;55.890;37.664;2023-07-28T11:39:59;12.55;;;10.20;;
61899;SDS011;47853;55.890;37.664;2023-07-28T11:42:26;12.32;;;10.82;;
61899;SDS011;47853;55.890;37.664;2023-07-28T11:44:58;13.60;;;11.38;;
61899;SDS011;47853;55.890;37.664;2023-07-28T11:47:24;13.48;;;9.90;;
61899;SDS011;47853;55.890;37.664;2023-07-28T11:49:49;10.57;;;8.60;;
61899;SDS011;47853;55.890;37.664;2023-07-28T11:52:17;10.15;;;9.15;;
61899;SDS011;47853;55.890;37.664;2023-07-28T11:54:43;12.63;;;9.88;;
61899;SDS011;47853;55.890;37.664;2023-07-28T11:57:09;11.77;;;9.50;;
61899;SDS011;47853;55.890;37.664;2023-07-28T11:59:44;10.38;;;9.35;;
61899;SDS011;47853;55.890;37.664;2023-07-28T12:02:13;11.48;;;8.73;;
61899;SDS011;47853;55.890;37.664;2023-07-28T12:04:40;10.32;;;9.15;;
61899;SDS011;47853;55.890;37.664;2023-07-28T12:12:12;12.40;;;9.20;;
61899;SDS011;47853;55.890;37.664;2023-07-28T12:14:50;12.90;;;8.80;;
61899;SDS011;47853;55.890;37.664;2023-07-28T12:17:19;10.13;;;8.82;;
61899;SDS011;47853;55.890;37.664;2023-07-28T12:20:03;10.05;;;8.98;;
61899;SDS011;47853;55.890;37.664;2023-07-28T12:22:51;13.60;;;9.38;;
61899;SDS011;47853;55.890;37.664;2023-07-28T12:25:18;11.32;;;8.82;;
61899;SDS011;47853;55.890;37.664;2023-07-28T12:27:44;10.35;;;9.00;;
61899;SDS011;47853;55.890;37.664;2023-07-28T12:30:09;11.93;;;9.60;;
61899;SDS011;47853;55.890;37.664;2023-07-28T12:32:38;11.18;;;10.07;;
61899;SDS011;47853;55.890;37.664;2023-07-28T14:14:02;3.83;;;2.90;;
61899;SDS011;47853;55.890;37.664;2023-07-28T14:16:27;6.40;;;3.08;;
61899;SDS011;47853;55.890;37.664;2023-07-28T14:18:52;4.82;;;3.38;;
61899;SDS011;47853;55.890;37.664;2023-07-28T14:21:20;5.90;;;3.65;;
61899;SDS011;47853;55.890;37.664;2023-07-28T14:23:45;8.77;;;3.17;;
61899;SDS011;47853;55.890;37.664;2023-07-28T14:26:11;5.32;;;2.67;;
61899;SDS011;47853;55.890;37.664;2023-07-28T14:28:39;6.07;;;2.67;;
61899;SDS011;47853;55.890;37.664;2023-07-28T14:31:04;6.30;;;2.83;;
61899;SDS011;47853;55.890;37.664;2023-07-28T14:33:29;3.83;;;2.40;;
61899;SDS011;47853;55.890;37.664;2023-07-28T14:35:55;4.00;;;2.70;;
61899;SDS011;47853;55.890;37.664;2023-07-28T14:51:52;5.82;;;3.88;;
61899;SDS011;47853;55.890;37.664;2023-07-28T15:04:18;5.47;;;2.92;;
61899;SDS011;47853;55.890;37.664;2023-07-28T15:06:51;3.95;;;2.85;;
61899;SDS011;47853;55.890;37.664;2023-07-28T15:09:35;7.97;;;3.15;;
61899;SDS011;47853;55.890;37.664;2023-07-28T15:12:31;4.93;;;2.85;;
61899;SDS011;47853;55.890;37.664;2023-07-28T15:21:15;5.20;;;3.08;;
61899;SDS011;47853;55.890;37.664;2023-07-28T15:27:33;5.10;;;3.13;;
61899;SDS011;47853;55.890;37.664;2023-07-28T17:57:07;3.78;;;2.10;;
61899;SDS011;47853;55.890;37.664;2023-07-28T17:59:33;2.17;;;1.98;;
61899;SDS011;47853;55.890;37.664;2023-07-28T18:02:05;4.70;;;2.30;;
61899;SDS011;47853;55.890;37.664;2023-07-28T18:04:59;8.88;;;7.90;;
61899;SDS011;47853;55.890;37.664;2023-07-28T18:08:00;3.08;;;1.75;;
61899;SDS011;47853;55.890;37.664;2023-07-28T18:16:18;3.00;;;2.63;;
61899;SDS011;47853;55.890;37.664;2023-07-28T18:19:04;4.35;;;2.95;;
61899;SDS011;47853;55.890;37.664;2023-07-28T18:21:29;5.90;;;2.17;;
61899;SDS011;47853;55.890;37.664;2023-07-28T18:24:04;4.82;;;2.38;;
61899;SDS011;47853;55.890;37.664;2023-07-28T22:22:52;3.70;;;2.40;;
61899;SDS011;47853;55.890;37.664;2023-07-28T22:28:49;7.20;;;4.93;;
